Map

Track Data

SID SEASON NUMBER BASIN SUBBASIN NAME ISO_TIME NATURE LAT LON WMO_WIND WMO_PRES WMO_AGENCY TRACK_TYPE DIST2LAND LANDFALL IFLAG USA_AGENCY USA_ATCF_ID USA_LAT USA_LON USA_RECORD USA_STATUS USA_WIND USA_PRES USA_SSHS USA_R34_NE USA_R34_SE USA_R34_SW USA_R34_NW USA_R50_NE USA_R50_SE USA_R50_SW USA_R50_NW USA_R64_NE USA_R64_SE USA_R64_SW USA_R64_NW USA_POCI USA_ROCI USA_RMW USA_EYE TOKYO_LAT TOKYO_LON TOKYO_GRADE TOKYO_WIND TOKYO_PRES TOKYO_R50_DIR TOKYO_R50_LONG TOKYO_R50_SHORT TOKYO_R30_DIR TOKYO_R30_LONG TOKYO_R30_SHORT TOKYO_LAND CMA_LAT CMA_LON CMA_CAT CMA_WIND CMA_PRES HKO_LAT HKO_LON HKO_CAT HKO_WIND HKO_PRES NEWDELHI_LAT NEWDELHI_LON NEWDELHI_GRADE NEWDELHI_WIND NEWDELHI_PRES NEWDELHI_CI NEWDELHI_DP NEWDELHI_POCI REUNION_LAT REUNION_LON REUNION_TYPE REUNION_WIND REUNION_PRES REUNION_TNUM REUNION_CI REUNION_RMW REUNION_R34_NE REUNION_R34_SE REUNION_R34_SW REUNION_R34_NW REUNION_R50_NE REUNION_R50_SE REUNION_R50_SW REUNION_R50_NW REUNION_R64_NE REUNION_R64_SE REUNION_R64_SW REUNION_R64_NW BOM_LAT BOM_LON BOM_TYPE BOM_WIND BOM_PRES BOM_TNUM BOM_CI BOM_RMW BOM_R34_NE BOM_R34_SE BOM_R34_SW BOM_R34_NW BOM_R50_NE BOM_R50_SE BOM_R50_SW BOM_R50_NW BOM_R64_NE BOM_R64_SE BOM_R64_SW BOM_R64_NW BOM_ROCI BOM_POCI BOM_EYE BOM_POS_METHOD BOM_PRES_METHOD NADI_LAT NADI_LON NADI_CAT NADI_WIND NADI_PRES WELLINGTON_LAT WELLINGTON_LON WELLINGTON_WIND WELLINGTON_PRES DS824_LAT DS824_LON DS824_STAGE DS824_WIND DS824_PRES TD9636_LAT TD9636_LON TD9636_STAGE TD9636_WIND TD9636_PRES TD9635_LAT TD9635_LON TD9635_WIND TD9635_PRES TD9635_ROCI NEUMANN_LAT NEUMANN_LON NEUMANN_CLASS NEUMANN_WIND NEUMANN_PRES MLC_LAT MLC_LON MLC_CLASS MLC_WIND MLC_PRES USA_GUST BOM_GUST BOM_GUST_PER REUNION_GUST REUNION_GUST_PER USA_SEAHGT USA_SEARAD_NE USA_SEARAD_SE USA_SEARAD_SW USA_SEARAD_NW STORM_SPEED STORM_DIR
1956216N09143 1956 67 WP MM NOT_NAMED 1956-08-02 18:00:00 TS 8.60000 143.000 main 1259 1255 __O___________ -1 8.60000 143.000 0 1004 11 296
1956216N09143 1956 67 WP MM NOT_NAMED 1956-08-02 21:00:00 TS 8.84522 142.488 main 1259 1259 __P___________ -1 8.84522 142.488 0 1004 11 297
1956216N09143 1956 67 WP MM NOT_NAMED 1956-08-03 00:00:00 TS 9.10000 142.000 main 1270 1267 __O___________ -1 9.10000 142.000 0 1004 11 300
1956216N09143 1956 67 WP MM NOT_NAMED 1956-08-03 03:00:00 TS 9.37725 141.537 main 1285 1282 __P___________ -1 9.37725 141.537 0 1003 12 301
1956216N09143 1956 67 WP MM NOT_NAMED 1956-08-03 06:00:00 TS 9.70000 141.000 main 1303 1300 __O___________ -1 9.70000 141.000 0 1003 14 301
1956216N09143 1956 67 WP MM NOT_NAMED 1956-08-03 09:00:00 TS 10.1076 140.288 main 1314 1310 __P___________ -1 10.1076 140.288 0 1003 17 298
1956216N09143 1956 67 WP MM NOT_NAMED 1956-08-03 12:00:00 TS 10.5000 139.500 main 1327 1323 __O___________ -1 10.5000 139.500 0 1003 17 294
1956216N09143 1956 67 WP MM NOT_NAMED 1956-08-03 15:00:00 TS 10.7724 138.735 main 1333 1305 __P___________ -1 10.7724 138.735 0 1002 16 289
1956216N09143 1956 67 WP MM NOT_NAMED 1956-08-03 18:00:00 TS 11.0000 138.000 main 1305 1235 __O___________ -1 11.0000 138.000 0 1002 15 289
1956216N09143 1956 67 WP MM NOT_NAMED 1956-08-03 21:00:00 TS 11.2499 137.305 main 1235 1177 __P___________ -1 11.2499 137.305 0 1002 14 291
1956216N09143 1956 67 WP MM NOT_NAMED 1956-08-04 00:00:00 TS 11.5000 136.700 main 1177 1140 __O___________ -1 11.5000 136.700 0 1002 12 296
1956216N09143 1956 67 WP MM NOT_NAMED 1956-08-04 03:00:00 TS 11.7722 136.227 main 1132 1095 __P___________ -1 11.7722 136.227 0 1002 10 300
1956216N09143 1956 67 WP MM NOT_NAMED 1956-08-04 06:00:00 TS 12.0000 135.800 main 1095 1042 __O___________ -1 12.0000 135.800 1 23 1002 10 292
1956216N09143 1956 67 WP MM NOT_NAMED 1956-08-04 09:00:00 TS 12.1300 135.300 main 1042 990 __P___________ -1 12.1300 135.300 1 23 1002 10 282
1956216N09143 1956 67 WP MM NOT_NAMED 1956-08-04 12:00:00 TS 12.2000 134.800 main 990 948 __O___________ -1 12.2000 134.800 1 23 1002 9 278
1956216N09143 1956 67 WP MM NOT_NAMED 1956-08-04 15:00:00 TS 12.2648 134.357 main 948 894 __P___________ -1 12.2648 134.357 1 1003 9 276
1956216N09143 1956 67 WP MM NOT_NAMED 1956-08-04 18:00:00 TS 12.3000 133.900 main 894 840 __O___________ -1 12.3000 133.900 0 1004 10 273
1956216N09143 1956 67 WP MM NOT_NAMED 1956-08-04 21:00:00 TS 12.3073 133.387 main 840 776 __P___________ -1 12.3073 133.387 0 1005 11 270
1956216N09143 1956 67 WP MM NOT_NAMED 1956-08-05 00:00:00 TS 12.3000 132.800 main 776 712 __O___________ -1 12.3000 132.800 0 1006 12 270
1956216N09143 1956 67 WP MM NOT_NAMED 1956-08-05 03:00:00 TS 12.2979 132.125 main 701 627 __P___________ -1 12.2979 132.125 0 1006 14 270
1956216N09143 1956 67 WP MM NOT_NAMED 1956-08-05 06:00:00 TS 12.3000 131.400 main 627 __O___________ -1 12.3000 131.400 0 1006 14 270

Digital Typhoon Data and Search

About IBTrACS Database

This database is a web-friendly format of International Best Track Archive for Climate Stewardship (IBTrACS), a global best track data archive curated by NOAA dating back to 1842.

Updated: 2021-11-26